Aérodrome :
LOGIN :

S'inscrire | Disclaimer

   EN    FR    IT 

 










Légende :    VFR   VFR Marginal   IFR   IFR Intensif   IFR Très Intensif
Visi : 
Plafond : 
>= 8 km
>= 3000ft
5 à 8 km
1000 à 3000 ft
1500m à 5 km
500 à 1000 ft
800 à 1500m
200 à 500 ft
< 800m
< 200 ft
Symboles :   Orages  Brouillard  Fortes neiges  Fortes précipitations  Vent > 20 kt
SIGMETs :   Divers  Orages  Givrage  Turbulence  Onde Orograph.  Cendres Volcan.






- Altitude de l'aérodrome : 265 ft


ETSH - Holzdorf AB

DERNIER METAR :
  • 091520Z 20007KT 9999 FEW038 BKN048 09/03 Q1000 BLU BLU

METARs EXPIRÉS :
  • 091420Z 21011KT 9999 BKN045 SCT140 09/03 Q0999 BLU BLU TEMPO WHT
  • 091320Z 21008KT 9999 BKN043 SCT100 09/03 Q0999 BLU BLU TEMPO BLU+

TAF COR TAF ETSH
Valide du 09 à 15h jusqu'au 10 à 00h UTC


091430Z 0915/0924 22012KT 9999 NSW BKN047 BKN100
TEMPO 0915/0918 22015G25KT 8000 -SHRA SCT020 BKN030
TEMPO 0918/0924 22015G30KT 5000 SHRA SCT015 BKN025



MET'MAP, la Météo Aéronautique d'un coup d'oeil ! - Copyright ORBIFLY Décembre 2007 - Disclaimer

ORBIFLY MET'MAP TEAM :

Programmation & Développement : Alexandra Zaïnal
Sur une idée originale de : Baudouin d'Aumeries
Assistance à la programmation : Marc-Olivier Méhu
Soutien technique & logistique : Manuel Goepfert

Contact : metmap@orbifly.com




SOURCES & CREDITS :

   NOAA